Terminal Aerodrome Forecast
Issued by NWS Des Moines, IA

Home | Current Version | Previous Version | Text Only | Print | Product List | Glossary On
Versions: 1 2 3 4 5 6 7 8 9 10 11 12 13 14 15 16
000
FTUS43 KDMX 240520
TAFALO
TAF
KALO 240520Z 2406/2506 12018G23KT P6SM -RA SCT060 OVC100
     FM241400 12014G21KT 5SM TSRA BKN012CB OVC020
     FM241900 21012KT 5SM -SHRA BR SCT008 OVC015
     FM242200 27013KT P6SM VCSH SCT015 OVC025
     FM250100 33009KT P6SM SCT025 BKN250=

USA.gov is the U.S. government's official web portal to all federal, state and local government web resources and services.